sensor_id;sensor_type;location;lat;lon;timestamp;P1;durP1;ratioP1;P2;durP2;ratioP2
55364;SDS011;41245;45.384;20.390;2022-11-14T00:00:08;45.95;;;24.70;;
55364;SDS011;41245;45.384;20.390;2022-11-14T00:02:36;41.22;;;23.85;;
55364;SDS011;41245;45.384;20.390;2022-11-14T00:05:03;48.63;;;25.20;;
55364;SDS011;41245;45.384;20.390;2022-11-14T00:07:30;39.90;;;24.65;;
55364;SDS011;41245;45.384;20.390;2022-11-14T00:09:57;46.67;;;24.02;;
55364;SDS011;41245;45.384;20.390;2022-11-14T00:12:23;43.70;;;24.77;;
55364;SDS011;41245;45.384;20.390;2022-11-14T00:14:49;112.82;;;44.70;;
55364;SDS011;41245;45.384;20.390;2022-11-14T00:17:15;68.35;;;34.03;;
55364;SDS011;41245;45.384;20.390;2022-11-14T00:19:41;49.67;;;25.70;;
55364;SDS011;41245;45.384;20.390;2022-11-14T00:22:07;42.53;;;23.67;;
55364;SDS011;41245;45.384;20.390;2022-11-14T00:24:32;48.83;;;23.02;;
55364;SDS011;41245;45.384;20.390;2022-11-14T00:26:58;46.08;;;23.65;;
55364;SDS011;41245;45.384;20.390;2022-11-14T00:29:24;48.00;;;24.23;;
55364;SDS011;41245;45.384;20.390;2022-11-14T00:31:49;58.72;;;25.55;;
55364;SDS011;41245;45.384;20.390;2022-11-14T00:34:15;42.13;;;23.23;;
55364;SDS011;41245;45.384;20.390;2022-11-14T00:36:41;41.60;;;21.77;;
55364;SDS011;41245;45.384;20.390;2022-11-14T00:39:08;44.25;;;24.50;;
55364;SDS011;41245;45.384;20.390;2022-11-14T00:41:36;43.65;;;24.40;;
55364;SDS011;41245;45.384;20.390;2022-11-14T00:44:02;46.33;;;24.65;;
55364;SDS011;41245;45.384;20.390;2022-11-14T00:46:28;45.92;;;24.67;;
55364;SDS011;41245;45.384;20.390;2022-11-14T00:48:54;43.70;;;24.08;;
55364;SDS011;41245;45.384;20.390;2022-11-14T00:51:19;51.92;;;25.48;;
55364;SDS011;41245;45.384;20.390;2022-11-14T00:53:45;49.50;;;24.35;;
55364;SDS011;41245;45.384;20.390;2022-11-14T00:56:11;47.53;;;25.58;;
55364;SDS011;41245;45.384;20.390;2022-11-14T00:58:36;48.33;;;24.85;;
55364;SDS011;41245;45.384;20.390;2022-11-14T01:01:02;47.50;;;24.75;;
55364;SDS011;41245;45.384;20.390;2022-11-14T01:03:28;44.88;;;23.48;;
55364;SDS011;41245;45.384;20.390;2022-11-14T01:05:54;44.92;;;23.27;;
55364;SDS011;41245;45.384;20.390;2022-11-14T01:08:19;48.30;;;23.50;;
55364;SDS011;41245;45.384;20.390;2022-11-14T01:10:46;40.90;;;24.15;;
55364;SDS011;41245;45.384;20.390;2022-11-14T01:13:16;41.53;;;22.52;;
55364;SDS011;41245;45.384;20.390;2022-11-14T01:15:43;45.15;;;23.92;;
55364;SDS011;41245;45.384;20.390;2022-11-14T01:18:11;43.00;;;22.13;;
55364;SDS011;41245;45.384;20.390;2022-11-14T01:20:40;43.47;;;23.48;;
55364;SDS011;41245;45.384;20.390;2022-11-14T01:23:07;38.40;;;22.27;;
55364;SDS011;41245;45.384;20.390;2022-11-14T01:25:34;34.80;;;22.02;;
55364;SDS011;41245;45.384;20.390;2022-11-14T01:28:04;44.58;;;21.35;;
55364;SDS011;41245;45.384;20.390;2022-11-14T01:30:35;39.08;;;20.90;;
55364;SDS011;41245;45.384;20.390;2022-11-14T01:33:02;38.67;;;22.73;;
55364;SDS011;41245;45.384;20.390;2022-11-14T01:35:28;40.13;;;22.38;;
55364;SDS011;41245;45.384;20.390;2022-11-14T01:37:55;45.47;;;23.23;;
55364;SDS011;41245;45.384;20.390;2022-11-14T01:40:21;39.67;;;21.70;;
55364;SDS011;41245;45.384;20.390;2022-11-14T01:48:31;37.90;;;21.55;;
55364;SDS011;41245;45.384;20.390;2022-11-14T01:53:53;39.92;;;21.00;;
55364;SDS011;41245;45.384;20.390;2022-11-14T01:56:23;32.75;;;18.80;;
55364;SDS011;41245;45.384;20.390;2022-11-14T01:58:57;31.17;;;19.23;;
55364;SDS011;41245;45.384;20.390;2022-11-14T02:01:28;35.33;;;19.48;;
55364;SDS011;41245;45.384;20.390;2022-11-14T02:03:56;34.90;;;20.35;;
55364;SDS011;41245;45.384;20.390;2022-11-14T02:06:24;37.00;;;20.17;;
55364;SDS011;41245;45.384;20.390;2022-11-14T02:08:53;29.70;;;18.65;;
55364;SDS011;41245;45.384;20.390;2022-11-14T02:11:20;34.83;;;19.73;;
55364;SDS011;41245;45.384;20.390;2022-11-14T02:13:45;34.80;;;19.08;;
55364;SDS011;41245;45.384;20.390;2022-11-14T02:16:11;30.73;;;17.98;;
55364;SDS011;41245;45.384;20.390;2022-11-14T02:18:37;28.65;;;17.15;;
55364;SDS011;41245;45.384;20.390;2022-11-14T02:21:03;31.15;;;18.15;;
55364;SDS011;41245;45.384;20.390;2022-11-14T02:23:29;31.92;;;17.52;;
55364;SDS011;41245;45.384;20.390;2022-11-14T02:25:56;28.33;;;17.48;;
55364;SDS011;41245;45.384;20.390;2022-11-14T02:28:23;33.85;;;18.00;;
55364;SDS011;41245;45.384;20.390;2022-11-14T02:30:49;28.92;;;16.58;;
55364;SDS011;41245;45.384;20.390;2022-11-14T02:33:15;35.88;;;19.42;;
55364;SDS011;41245;45.384;20.390;2022-11-14T02:35:41;28.80;;;16.85;;
55364;SDS011;41245;45.384;20.390;2022-11-14T02:38:06;43.17;;;20.05;;
55364;SDS011;41245;45.384;20.390;2022-11-14T02:40:32;36.78;;;18.15;;
55364;SDS011;41245;45.384;20.390;2022-11-14T02:42:58;33.65;;;19.83;;
55364;SDS011;41245;45.384;20.390;2022-11-14T02:45:24;38.33;;;19.88;;
55364;SDS011;41245;45.384;20.390;2022-11-14T02:47:50;36.65;;;17.73;;
55364;SDS011;41245;45.384;20.390;2022-11-14T02:50:16;36.63;;;20.35;;
55364;SDS011;41245;45.384;20.390;2022-11-14T02:52:41;35.85;;;19.65;;
55364;SDS011;41245;45.384;20.390;2022-11-14T02:55:07;38.10;;;20.65;;
55364;SDS011;41245;45.384;20.390;2022-11-14T02:57:34;33.63;;;19.50;;
55364;SDS011;41245;45.384;20.390;2022-11-14T02:59:59;34.20;;;18.70;;
55364;SDS011;41245;45.384;20.390;2022-11-14T03:02:25;36.75;;;19.48;;
55364;SDS011;41245;45.384;20.390;2022-11-14T03:04:51;31.02;;;17.60;;
55364;SDS011;41245;45.384;20.390;2022-11-14T03:07:17;38.03;;;20.55;;
55364;SDS011;41245;45.384;20.390;2022-11-14T03:09:42;34.28;;;19.85;;
55364;SDS011;41245;45.384;20.390;2022-11-14T03:12:08;38.35;;;19.58;;
55364;SDS011;41245;45.384;20.390;2022-11-14T03:14:34;34.22;;;18.75;;
55364;SDS011;41245;45.384;20.390;2022-11-14T03:17:00;31.23;;;19.33;;
55364;SDS011;41245;45.384;20.390;2022-11-14T03:19:26;31.70;;;18.35;;
55364;SDS011;41245;45.384;20.390;2022-11-14T03:21:52;30.70;;;18.20;;
55364;SDS011;41245;45.384;20.390;2022-11-14T03:24:17;35.95;;;18.38;;
55364;SDS011;41245;45.384;20.390;2022-11-14T03:26:43;35.35;;;19.77;;
55364;SDS011;41245;45.384;20.390;2022-11-14T03:29:09;34.22;;;19.55;;
55364;SDS011;41245;45.384;20.390;2022-11-14T03:31:35;34.13;;;19.30;;
55364;SDS011;41245;45.384;20.390;2022-11-14T03:34:00;42.20;;;20.83;;
55364;SDS011;41245;45.384;20.390;2022-11-14T03:36:26;43.20;;;20.83;;
55364;SDS011;41245;45.384;20.390;2022-11-14T03:38:52;39.13;;;19.83;;
55364;SDS011;41245;45.384;20.390;2022-11-14T03:41:17;36.03;;;20.50;;
55364;SDS011;41245;45.384;20.390;2022-11-14T03:43:43;43.10;;;19.75;;
55364;SDS011;41245;45.384;20.390;2022-11-14T03:46:09;39.33;;;19.27;;
55364;SDS011;41245;45.384;20.390;2022-11-14T03:48:34;36.60;;;19.17;;
55364;SDS011;41245;45.384;20.390;2022-11-14T03:51:00;36.88;;;19.67;;
55364;SDS011;41245;45.384;20.390;2022-11-14T03:53:25;36.20;;;21.73;;
55364;SDS011;41245;45.384;20.390;2022-11-14T03:55:52;39.20;;;21.52;;
55364;SDS011;41245;45.384;20.390;2022-11-14T03:58:18;34.55;;;19.58;;
55364;SDS011;41245;45.384;20.390;2022-11-14T04:00:44;34.58;;;18.17;;
55364;SDS011;41245;45.384;20.390;2022-11-14T04:03:10;36.05;;;19.13;;
55364;SDS011;41245;45.384;20.390;2022-11-14T04:05:36;33.17;;;17.98;;
55364;SDS011;41245;45.384;20.390;2022-11-14T04:08:04;33.28;;;17.80;;
55364;SDS011;41245;45.384;20.390;2022-11-14T04:10:30;36.42;;;17.83;;
55364;SDS011;41245;45.384;20.390;2022-11-14T04:12:56;37.22;;;18.85;;
55364;SDS011;41245;45.384;20.390;2022-11-14T04:15:22;32.38;;;17.48;;
55364;SDS011;41245;45.384;20.390;2022-11-14T04:17:48;33.00;;;18.30;;
55364;SDS011;41245;45.384;20.390;2022-11-14T04:20:13;37.95;;;19.80;;
55364;SDS011;41245;45.384;20.390;2022-11-14T04:22:39;35.97;;;20.55;;
55364;SDS011;41245;45.384;20.390;2022-11-14T04:25:05;29.05;;;17.30;;
55364;SDS011;41245;45.384;20.390;2022-11-14T04:27:32;32.38;;;17.85;;
55364;SDS011;41245;45.384;20.390;2022-11-14T04:29:58;34.15;;;18.00;;
55364;SDS011;41245;45.384;20.390;2022-11-14T04:32:24;42.58;;;17.70;;
55364;SDS011;41245;45.384;20.390;2022-11-14T04:34:49;32.30;;;19.40;;
55364;SDS011;41245;45.384;20.390;2022-11-14T04:37:15;33.25;;;18.83;;
55364;SDS011;41245;45.384;20.390;2022-11-14T04:39:41;32.58;;;18.65;;
55364;SDS011;41245;45.384;20.390;2022-11-14T04:42:06;30.73;;;18.92;;
55364;SDS011;41245;45.384;20.390;2022-11-14T04:44:32;36.25;;;16.65;;
55364;SDS011;41245;45.384;20.390;2022-11-14T04:46:58;29.60;;;18.23;;
55364;SDS011;41245;45.384;20.390;2022-11-14T04:49:23;31.35;;;17.35;;
55364;SDS011;41245;45.384;20.390;2022-11-14T04:51:49;34.78;;;18.13;;
55364;SDS011;41245;45.384;20.390;2022-11-14T04:54:15;33.28;;;18.05;;
55364;SDS011;41245;45.384;20.390;2022-11-14T04:56:40;30.27;;;18.10;;
55364;SDS011;41245;45.384;20.390;2022-11-14T04:59:06;29.70;;;17.13;;
55364;SDS011;41245;45.384;20.390;2022-11-14T05:01:32;35.10;;;18.33;;
55364;SDS011;41245;45.384;20.390;2022-11-14T05:03:58;32.10;;;18.38;;
55364;SDS011;41245;45.384;20.390;2022-11-14T05:06:23;40.10;;;19.77;;
55364;SDS011;41245;45.384;20.390;2022-11-14T05:08:49;32.17;;;18.55;;
55364;SDS011;41245;45.384;20.390;2022-11-14T05:11:15;34.75;;;19.77;;
55364;SDS011;41245;45.384;20.390;2022-11-14T05:13:42;33.00;;;18.65;;
55364;SDS011;41245;45.384;20.390;2022-11-14T05:16:08;35.33;;;20.13;;
55364;SDS011;41245;45.384;20.390;2022-11-14T05:18:34;43.30;;;20.58;;
55364;SDS011;41245;45.384;20.390;2022-11-14T05:21:01;34.83;;;19.80;;
55364;SDS011;41245;45.384;20.390;2022-11-14T05:23:26;39.28;;;20.40;;
55364;SDS011;41245;45.384;20.390;2022-11-14T05:25:59;33.95;;;19.42;;
55364;SDS011;41245;45.384;20.390;2022-11-14T05:28:25;34.83;;;20.98;;
55364;SDS011;41245;45.384;20.390;2022-11-14T05:30:50;39.17;;;20.63;;
55364;SDS011;41245;45.384;20.390;2022-11-14T05:33:16;37.53;;;20.98;;
55364;SDS011;41245;45.384;20.390;2022-11-14T05:35:42;37.28;;;19.70;;
55364;SDS011;41245;45.384;20.390;2022-11-14T05:38:07;44.30;;;24.17;;
55364;SDS011;41245;45.384;20.390;2022-11-14T05:40:33;54.40;;;28.60;;
55364;SDS011;41245;45.384;20.390;2022-11-14T05:42:59;55.30;;;28.67;;
55364;SDS011;41245;45.384;20.390;2022-11-14T05:45:24;54.58;;;27.63;;
55364;SDS011;41245;45.384;20.390;2022-11-14T05:47:53;47.15;;;27.23;;
55364;SDS011;41245;45.384;20.390;2022-11-14T05:50:18;46.53;;;23.33;;
55364;SDS011;41245;45.384;20.390;2022-11-14T05:52:44;37.65;;;21.25;;
55364;SDS011;41245;45.384;20.390;2022-11-14T05:55:10;44.55;;;22.55;;
55364;SDS011;41245;45.384;20.390;2022-11-14T05:57:35;47.92;;;23.45;;
55364;SDS011;41245;45.384;20.390;2022-11-14T06:00:02;62.40;;;26.58;;
55364;SDS011;41245;45.384;20.390;2022-11-14T06:02:29;54.67;;;26.60;;
55364;SDS011;41245;45.384;20.390;2022-11-14T06:04:54;44.40;;;24.67;;
55364;SDS011;41245;45.384;20.390;2022-11-14T06:07:20;54.45;;;23.48;;
55364;SDS011;41245;45.384;20.390;2022-11-14T06:09:46;39.72;;;23.55;;
55364;SDS011;41245;45.384;20.390;2022-11-14T06:12:11;41.50;;;20.88;;
55364;SDS011;41245;45.384;20.390;2022-11-14T06:14:37;43.70;;;22.23;;
55364;SDS011;41245;45.384;20.390;2022-11-14T06:17:03;32.88;;;19.40;;
55364;SDS011;41245;45.384;20.390;2022-11-14T06:19:28;35.97;;;20.35;;
55364;SDS011;41245;45.384;20.390;2022-11-14T06:21:54;39.42;;;20.70;;
55364;SDS011;41245;45.384;20.390;2022-11-14T06:24:20;35.80;;;20.80;;
55364;SDS011;41245;45.384;20.390;2022-11-14T06:26:45;40.38;;;20.27;;
55364;SDS011;41245;45.384;20.390;2022-11-14T06:29:11;45.83;;;23.63;;
55364;SDS011;41245;45.384;20.390;2022-11-14T06:31:36;40.22;;;21.30;;
55364;SDS011;41245;45.384;20.390;2022-11-14T06:34:03;45.97;;;22.52;;
55364;SDS011;41245;45.384;20.390;2022-11-14T06:36:30;35.15;;;19.73;;
55364;SDS011;41245;45.384;20.390;2022-11-14T06:38:55;38.65;;;19.60;;
55364;SDS011;41245;45.384;20.390;2022-11-14T06:41:21;33.40;;;18.83;;
55364;SDS011;41245;45.384;20.390;2022-11-14T06:43:48;31.67;;;17.95;;
55364;SDS011;41245;45.384;20.390;2022-11-14T06:46:16;30.40;;;18.33;;
55364;SDS011;41245;45.384;20.390;2022-11-14T06:48:44;32.13;;;18.42;;
55364;SDS011;41245;45.384;20.390;2022-11-14T06:51:11;34.60;;;17.83;;
55364;SDS011;41245;45.384;20.390;2022-11-14T06:53:38;23.77;;;15.63;;
55364;SDS011;41245;45.384;20.390;2022-11-14T06:56:04;28.58;;;15.43;;
55364;SDS011;41245;45.384;20.390;2022-11-14T06:58:39;31.95;;;16.20;;
55364;SDS011;41245;45.384;20.390;2022-11-14T07:01:07;28.75;;;16.08;;
55364;SDS011;41245;45.384;20.390;2022-11-14T07:03:39;26.92;;;15.02;;
55364;SDS011;41245;45.384;20.390;2022-11-14T07:06:07;31.80;;;15.18;;
55364;SDS011;41245;45.384;20.390;2022-11-14T07:08:34;33.78;;;16.10;;
55364;SDS011;41245;45.384;20.390;2022-11-14T07:11:03;24.45;;;14.18;;
55364;SDS011;41245;45.384;20.390;2022-11-14T07:13:30;31.80;;;15.10;;
55364;SDS011;41245;45.384;20.390;2022-11-14T07:15:57;28.83;;;15.20;;
55364;SDS011;41245;45.384;20.390;2022-11-14T07:18:23;24.85;;;13.90;;
55364;SDS011;41245;45.384;20.390;2022-11-14T07:20:49;26.38;;;13.82;;
55364;SDS011;41245;45.384;20.390;2022-11-14T07:23:20;26.08;;;13.45;;
55364;SDS011;41245;45.384;20.390;2022-11-14T07:25:46;33.55;;;13.23;;
55364;SDS011;41245;45.384;20.390;2022-11-14T07:28:12;25.85;;;12.95;;
55364;SDS011;41245;45.384;20.390;2022-11-14T07:30:38;23.73;;;12.05;;
55364;SDS011;41245;45.384;20.390;2022-11-14T07:33:05;16.73;;;11.48;;
55364;SDS011;41245;45.384;20.390;2022-11-14T07:35:31;20.55;;;11.60;;
55364;SDS011;41245;45.384;20.390;2022-11-14T07:38:02;23.60;;;11.60;;
55364;SDS011;41245;45.384;20.390;2022-11-14T07:40:29;25.75;;;13.05;;
55364;SDS011;41245;45.384;20.390;2022-11-14T07:42:58;21.45;;;14.25;;
55364;SDS011;41245;45.384;20.390;2022-11-14T07:48:00;22.08;;;11.85;;
55364;SDS011;41245;45.384;20.390;2022-11-14T07:50:26;25.25;;;12.70;;
55364;SDS011;41245;45.384;20.390;2022-11-14T07:52:53;26.42;;;12.95;;
55364;SDS011;41245;45.384;20.390;2022-11-14T07:55:20;24.20;;;13.50;;
55364;SDS011;41245;45.384;20.390;2022-11-14T07:57:46;26.23;;;13.95;;
55364;SDS011;41245;45.384;20.390;2022-11-14T08:00:13;31.50;;;14.93;;
55364;SDS011;41245;45.384;20.390;2022-11-14T08:02:39;24.00;;;13.70;;
55364;SDS011;41245;45.384;20.390;2022-11-14T08:05:05;21.20;;;13.57;;
55364;SDS011;41245;45.384;20.390;2022-11-14T08:07:31;23.23;;;13.65;;
55364;SDS011;41245;45.384;20.390;2022-11-14T08:09:56;26.60;;;13.85;;
55364;SDS011;41245;45.384;20.390;2022-11-14T08:12:22;23.73;;;13.27;;
55364;SDS011;41245;45.384;20.390;2022-11-14T08:14:48;27.05;;;13.75;;
55364;SDS011;41245;45.384;20.390;2022-11-14T08:17:13;29.63;;;14.35;;
55364;SDS011;41245;45.384;20.390;2022-11-14T08:19:39;26.85;;;14.80;;
55364;SDS011;41245;45.384;20.390;2022-11-14T08:22:07;27.20;;;14.60;;
55364;SDS011;41245;45.384;20.390;2022-11-14T08:24:33;23.58;;;15.55;;
55364;SDS011;41245;45.384;20.390;2022-11-14T08:26:59;22.40;;;14.02;;
55364;SDS011;41245;45.384;20.390;2022-11-14T08:29:24;25.67;;;17.38;;
55364;SDS011;41245;45.384;20.390;2022-11-14T08:31:50;28.80;;;16.20;;
55364;SDS011;41245;45.384;20.390;2022-11-14T08:34:16;25.55;;;16.58;;
55364;SDS011;41245;45.384;20.390;2022-11-14T08:36:41;30.90;;;19.33;;
55364;SDS011;41245;45.384;20.390;2022-11-14T08:39:07;26.08;;;17.35;;
55364;SDS011;41245;45.384;20.390;2022-11-14T08:41:33;30.23;;;20.08;;
55364;SDS011;41245;45.384;20.390;2022-11-14T08:43:58;34.03;;;21.00;;
55364;SDS011;41245;45.384;20.390;2022-11-14T08:46:24;33.28;;;20.83;;
55364;SDS011;41245;45.384;20.390;2022-11-14T08:48:50;36.42;;;22.42;;
55364;SDS011;41245;45.384;20.390;2022-11-14T08:51:15;35.58;;;25.75;;
55364;SDS011;41245;45.384;20.390;2022-11-14T08:53:41;40.97;;;28.08;;
55364;SDS011;41245;45.384;20.390;2022-11-14T08:56:08;46.22;;;28.20;;
55364;SDS011;41245;45.384;20.390;2022-11-14T08:58:34;43.08;;;27.83;;
55364;SDS011;41245;45.384;20.390;2022-11-14T09:01:02;46.60;;;30.08;;
55364;SDS011;41245;45.384;20.390;2022-11-14T09:03:29;51.75;;;31.02;;
55364;SDS011;41245;45.384;20.390;2022-11-14T09:05:55;45.80;;;29.20;;
55364;SDS011;41245;45.384;20.390;2022-11-14T09:08:20;46.85;;;29.48;;
55364;SDS011;41245;45.384;20.390;2022-11-14T09:10:47;41.00;;;27.70;;
55364;SDS011;41245;45.384;20.390;2022-11-14T09:13:13;41.38;;;27.77;;
55364;SDS011;41245;45.384;20.390;2022-11-14T09:15:39;40.95;;;26.13;;
55364;SDS011;41245;45.384;20.390;2022-11-14T09:18:05;38.15;;;25.27;;
55364;SDS011;41245;45.384;20.390;2022-11-14T09:20:31;37.95;;;24.83;;
55364;SDS011;41245;45.384;20.390;2022-11-14T09:22:57;37.50;;;26.42;;
55364;SDS011;41245;45.384;20.390;2022-11-14T09:25:23;35.67;;;22.95;;
55364;SDS011;41245;45.384;20.390;2022-11-14T09:27:50;32.58;;;24.02;;
55364;SDS011;41245;45.384;20.390;2022-11-14T09:30:16;38.08;;;24.63;;
55364;SDS011;41245;45.384;20.390;2022-11-14T09:32:42;35.05;;;24.05;;
55364;SDS011;41245;45.384;20.390;2022-11-14T09:35:08;38.28;;;23.15;;
55364;SDS011;41245;45.384;20.390;2022-11-14T09:37:34;35.22;;;23.25;;
55364;SDS011;41245;45.384;20.390;2022-11-14T09:40:00;33.95;;;20.88;;
55364;SDS011;41245;45.384;20.390;2022-11-14T09:45:25;32.72;;;21.45;;
55364;SDS011;41245;45.384;20.390;2022-11-14T09:47:53;37.80;;;19.88;;
55364;SDS011;41245;45.384;20.390;2022-11-14T09:50:27;34.83;;;20.00;;
55364;SDS011;41245;45.384;20.390;2022-11-14T09:53:20;59.05;;;18.83;;
55364;SDS011;41245;45.384;20.390;2022-11-14T09:55:53;34.03;;;19.83;;
55364;SDS011;41245;45.384;20.390;2022-11-14T09:58:19;26.75;;;18.65;;
55364;SDS011;41245;45.384;20.390;2022-11-14T10:08:58;29.90;;;18.65;;
55364;SDS011;41245;45.384;20.390;2022-11-14T10:11:37;34.45;;;20.92;;
55364;SDS011;41245;45.384;20.390;2022-11-14T10:19:39;41.88;;;18.35;;
55364;SDS011;41245;45.384;20.390;2022-11-14T10:27:35;25.65;;;16.90;;
55364;SDS011;41245;45.384;20.390;2022-11-14T10:30:11;28.92;;;17.48;;
55364;SDS011;41245;45.384;20.390;2022-11-14T10:40:21;29.02;;;18.58;;
55364;SDS011;41245;45.384;20.390;2022-11-14T10:45:28;26.23;;;17.20;;
55364;SDS011;41245;45.384;20.390;2022-11-14T10:48:19;26.00;;;17.60;;
55364;SDS011;41245;45.384;20.390;2022-11-14T10:50:56;31.52;;;19.50;;
55364;SDS011;41245;45.384;20.390;2022-11-14T10:55:53;33.67;;;20.33;;
55364;SDS011;41245;45.384;20.390;2022-11-14T10:58:20;31.95;;;20.08;;
55364;SDS011;41245;45.384;20.390;2022-11-14T11:00:47;33.92;;;21.45;;
55364;SDS011;41245;45.384;20.390;2022-11-14T11:03:12;29.40;;;19.55;;
55364;SDS011;41245;45.384;20.390;2022-11-14T11:05:48;29.92;;;20.42;;
55364;SDS011;41245;45.384;20.390;2022-11-14T11:08:21;30.60;;;19.08;;
55364;SDS011;41245;45.384;20.390;2022-11-14T11:11:15;29.55;;;19.05;;
55364;SDS011;41245;45.384;20.390;2022-11-14T11:13:57;34.92;;;19.05;;
55364;SDS011;41245;45.384;20.390;2022-11-14T11:16:25;30.80;;;17.87;;
55364;SDS011;41245;45.384;20.390;2022-11-14T11:18:52;25.02;;;15.75;;
55364;SDS011;41245;45.384;20.390;2022-11-14T11:21:19;24.15;;;15.63;;
55364;SDS011;41245;45.384;20.390;2022-11-14T11:23:50;27.35;;;15.98;;
55364;SDS011;41245;45.384;20.390;2022-11-14T11:26:18;21.52;;;15.00;;
55364;SDS011;41245;45.384;20.390;2022-11-14T11:28:59;30.35;;;13.43;;
55364;SDS011;41245;45.384;20.390;2022-11-14T11:31:27;21.30;;;13.93;;
55364;SDS011;41245;45.384;20.390;2022-11-14T11:34:08;23.70;;;14.70;;
55364;SDS011;41245;45.384;20.390;2022-11-14T11:36:37;23.85;;;12.90;;
55364;SDS011;41245;45.384;20.390;2022-11-14T11:39:04;18.52;;;12.80;;
55364;SDS011;41245;45.384;20.390;2022-11-14T11:41:31;22.00;;;12.52;;
55364;SDS011;41245;45.384;20.390;2022-11-14T11:44:00;18.05;;;12.63;;
55364;SDS011;41245;45.384;20.390;2022-11-14T11:51:54;21.85;;;14.77;;
55364;SDS011;41245;45.384;20.390;2022-11-14T11:54:27;22.27;;;12.10;;
55364;SDS011;41245;45.384;20.390;2022-11-14T11:56:55;18.95;;;11.60;;
55364;SDS011;41245;45.384;20.390;2022-11-14T12:01:58;16.52;;;11.85;;
55364;SDS011;41245;45.384;20.390;2022-11-14T12:04:25;21.55;;;11.85;;
55364;SDS011;41245;45.384;20.390;2022-11-14T12:06:58;17.85;;;10.73;;
55364;SDS011;41245;45.384;20.390;2022-11-14T12:09:28;17.08;;;11.05;;
55364;SDS011;41245;45.384;20.390;2022-11-14T12:12:02;19.38;;;12.10;;
55364;SDS011;41245;45.384;20.390;2022-11-14T12:31:13;18.10;;;10.02;;
55364;SDS011;41245;45.384;20.390;2022-11-14T12:33:52;16.35;;;9.57;;
55364;SDS011;41245;45.384;20.390;2022-11-14T12:36:26;17.25;;;9.35;;
55364;SDS011;41245;45.384;20.390;2022-11-14T12:38:55;17.20;;;8.85;;
55364;SDS011;41245;45.384;20.390;2022-11-14T12:41:26;17.27;;;8.60;;
55364;SDS011;41245;45.384;20.390;2022-11-14T12:49:35;16.83;;;8.70;;
55364;SDS011;41245;45.384;20.390;2022-11-14T12:58:10;14.75;;;8.93;;
55364;SDS011;41245;45.384;20.390;2022-11-14T13:01:19;22.10;;;10.00;;
55364;SDS011;41245;45.384;20.390;2022-11-14T13:18:32;14.95;;;9.90;;
55364;SDS011;41245;45.384;20.390;2022-11-14T13:24:08;17.48;;;9.88;;
55364;SDS011;41245;45.384;20.390;2022-11-14T13:26:39;19.75;;;11.02;;
55364;SDS011;41245;45.384;20.390;2022-11-14T13:29:06;15.43;;;10.10;;
55364;SDS011;41245;45.384;20.390;2022-11-14T13:34:24;21.00;;;11.13;;
55364;SDS011;41245;45.384;20.390;2022-11-14T13:42:44;12.90;;;9.52;;
55364;SDS011;41245;45.384;20.390;2022-11-14T13:51:11;15.93;;;10.40;;
55364;SDS011;41245;45.384;20.390;2022-11-14T13:53:41;20.23;;;11.23;;
55364;SDS011;41245;45.384;20.390;2022-11-14T14:24:10;17.33;;;10.07;;
55364;SDS011;41245;45.384;20.390;2022-11-14T14:27:03;18.58;;;9.93;;
55364;SDS011;41245;45.384;20.390;2022-11-14T14:32:33;18.13;;;11.48;;
55364;SDS011;41245;45.384;20.390;2022-11-14T14:34:59;18.85;;;9.77;;
55364;SDS011;41245;45.384;20.390;2022-11-14T14:37:37;20.63;;;10.32;;
55364;SDS011;41245;45.384;20.390;2022-11-14T14:40:25;20.23;;;12.55;;
55364;SDS011;41245;45.384;20.390;2022-11-14T14:42:58;30.08;;;14.18;;
55364;SDS011;41245;45.384;20.390;2022-11-14T14:45:26;35.08;;;19.08;;
55364;SDS011;41245;45.384;20.390;2022-11-14T14:48:01;33.25;;;16.58;;
55364;SDS011;41245;45.384;20.390;2022-11-14T14:50:34;26.88;;;15.25;;
55364;SDS011;41245;45.384;20.390;2022-11-14T14:53:03;25.63;;;13.65;;
55364;SDS011;41245;45.384;20.390;2022-11-14T14:55:31;23.83;;;15.18;;
55364;SDS011;41245;45.384;20.390;2022-11-14T15:00:52;26.58;;;15.75;;
55364;SDS011;41245;45.384;20.390;2022-11-14T15:03:35;24.35;;;13.63;;
55364;SDS011;41245;45.384;20.390;2022-11-14T15:06:05;20.45;;;13.52;;
55364;SDS011;41245;45.384;20.390;2022-11-14T15:08:42;32.03;;;15.77;;
55364;SDS011;41245;45.384;20.390;2022-11-14T15:11:09;28.73;;;13.45;;
55364;SDS011;41245;45.384;20.390;2022-11-14T15:13:37;21.10;;;11.15;;
55364;SDS011;41245;45.384;20.390;2022-11-14T15:16:05;20.02;;;11.38;;
55364;SDS011;41245;45.384;20.390;2022-11-14T15:18:32;17.00;;;10.73;;
55364;SDS011;41245;45.384;20.390;2022-11-14T15:23:41;18.17;;;11.77;;
55364;SDS011;41245;45.384;20.390;2022-11-14T15:26:11;19.70;;;11.82;;
55364;SDS011;41245;45.384;20.390;2022-11-14T15:28:40;18.63;;;11.88;;
55364;SDS011;41245;45.384;20.390;2022-11-14T15:31:12;25.95;;;15.35;;
55364;SDS011;41245;45.384;20.390;2022-11-14T15:33:41;30.25;;;14.48;;
55364;SDS011;41245;45.384;20.390;2022-11-14T15:36:11;24.58;;;14.10;;
55364;SDS011;41245;45.384;20.390;2022-11-14T15:38:38;22.58;;;13.25;;
55364;SDS011;41245;45.384;20.390;2022-11-14T15:41:08;27.15;;;12.90;;
55364;SDS011;41245;45.384;20.390;2022-11-14T15:43:46;19.88;;;12.40;;
55364;SDS011;41245;45.384;20.390;2022-11-14T15:49:08;20.65;;;12.32;;
55364;SDS011;41245;45.384;20.390;2022-11-14T15:51:56;20.42;;;12.82;;
55364;SDS011;41245;45.384;20.390;2022-11-14T15:56:50;23.85;;;12.98;;
55364;SDS011;41245;45.384;20.390;2022-11-14T15:59:16;29.63;;;13.82;;
55364;SDS011;41245;45.384;20.390;2022-11-14T16:01:43;21.88;;;11.38;;
55364;SDS011;41245;45.384;20.390;2022-11-14T16:04:12;18.80;;;10.40;;
55364;SDS011;41245;45.384;20.390;2022-11-14T16:06:41;20.38;;;11.52;;
55364;SDS011;41245;45.384;20.390;2022-11-14T16:09:17;20.73;;;12.48;;
55364;SDS011;41245;45.384;20.390;2022-11-14T16:11:44;21.52;;;13.18;;
55364;SDS011;41245;45.384;20.390;2022-11-14T16:14:10;29.05;;;15.63;;
55364;SDS011;41245;45.384;20.390;2022-11-14T16:16:36;27.65;;;15.10;;
55364;SDS011;41245;45.384;20.390;2022-11-14T16:19:02;26.80;;;15.88;;
55364;SDS011;41245;45.384;20.390;2022-11-14T16:21:28;32.45;;;17.42;;
55364;SDS011;41245;45.384;20.390;2022-11-14T16:23:54;32.53;;;17.00;;
55364;SDS011;41245;45.384;20.390;2022-11-14T16:26:20;33.80;;;19.02;;
55364;SDS011;41245;45.384;20.390;2022-11-14T16:28:46;38.25;;;19.95;;
55364;SDS011;41245;45.384;20.390;2022-11-14T16:31:12;38.83;;;19.13;;
55364;SDS011;41245;45.384;20.390;2022-11-14T16:33:38;42.40;;;19.40;;
55364;SDS011;41245;45.384;20.390;2022-11-14T16:36:04;37.45;;;22.25;;
55364;SDS011;41245;45.384;20.390;2022-11-14T16:38:30;44.10;;;23.33;;
55364;SDS011;41245;45.384;20.390;2022-11-14T16:40:55;40.72;;;23.48;;
55364;SDS011;41245;45.384;20.390;2022-11-14T16:43:21;51.40;;;23.15;;
55364;SDS011;41245;45.384;20.390;2022-11-14T16:45:47;43.90;;;21.70;;
55364;SDS011;41245;45.384;20.390;2022-11-14T16:48:13;44.95;;;24.33;;